sensor_id;sensor_type;location;lat;lon;timestamp;temperature;humidity
14517;DHT22;7344;50.864;4.362;2023-02-23T00:01:41;10.00;99.90
14517;DHT22;7344;50.864;4.362;2023-02-23T00:04:07;10.00;99.90
14517;DHT22;7344;50.864;4.362;2023-02-23T00:06:39;10.10;99.90
14517;DHT22;7344;50.864;4.362;2023-02-23T00:09:05;10.00;99.90
14517;DHT22;7344;50.864;4.362;2023-02-23T00:11:34;10.00;99.90
14517;DHT22;7344;50.864;4.362;2023-02-23T00:14:01;10.00;99.90
14517;DHT22;7344;50.864;4.362;2023-02-23T00:16:27;10.00;99.90
14517;DHT22;7344;50.864;4.362;2023-02-23T00:18:55;10.10;99.90
14517;DHT22;7344;50.864;4.362;2023-02-23T00:21:29;10.10;99.90
14517;DHT22;7344;50.864;4.362;2023-02-23T00:24:07;10.10;99.90
14517;DHT22;7344;50.864;4.362;2023-02-23T00:26:34;10.30;99.90
14517;DHT22;7344;50.864;4.362;2023-02-23T00:29:01;10.30;99.90
14517;DHT22;7344;50.864;4.362;2023-02-23T00:31:28;10.30;99.90
14517;DHT22;7344;50.864;4.362;2023-02-23T00:33:57;10.30;99.90
14517;DHT22;7344;50.864;4.362;2023-02-23T00:36:27;10.20;99.90
14517;DHT22;7344;50.864;4.362;2023-02-23T00:38:56;10.20;99.90
14517;DHT22;7344;50.864;4.362;2023-02-23T00:41:23;10.10;99.90
14517;DHT22;7344;50.864;4.362;2023-02-23T00:43:57;10.00;99.90
14517;DHT22;7344;50.864;4.362;2023-02-23T00:46:25;10.00;99.90
14517;DHT22;7344;50.864;4.362;2023-02-23T00:48:55;10.10;99.90
14517;DHT22;7344;50.864;4.362;2023-02-23T00:51:23;10.00;99.90
14517;DHT22;7344;50.864;4.362;2023-02-23T00:53:56;10.10;99.90
14517;DHT22;7344;50.864;4.362;2023-02-23T00:56:22;10.10;99.90
14517;DHT22;7344;50.864;4.362;2023-02-23T00:58:48;10.20;99.90
14517;DHT22;7344;50.864;4.362;2023-02-23T01:01:17;10.20;99.90
14517;DHT22;7344;50.864;4.362;2023-02-23T01:03:43;10.20;99.90
14517;DHT22;7344;50.864;4.362;2023-02-23T01:06:11;10.20;99.90
14517;DHT22;7344;50.864;4.362;2023-02-23T01:08:42;10.20;99.90
14517;DHT22;7344;50.864;4.362;2023-02-23T01:11:13;10.10;99.90
14517;DHT22;7344;50.864;4.362;2023-02-23T01:13:41;10.10;99.90
14517;DHT22;7344;50.864;4.362;2023-02-23T01:16:12;10.10;99.90
14517;DHT22;7344;50.864;4.362;2023-02-23T01:18:39;10.20;99.90
14517;DHT22;7344;50.864;4.362;2023-02-23T01:21:17;10.20;99.90
14517;DHT22;7344;50.864;4.362;2023-02-23T01:23:43;10.20;99.90
14517;DHT22;7344;50.864;4.362;2023-02-23T01:26:17;10.20;99.90
14517;DHT22;7344;50.864;4.362;2023-02-23T01:28:50;10.10;99.90
14517;DHT22;7344;50.864;4.362;2023-02-23T01:31:17;10.10;99.90
14517;DHT22;7344;50.864;4.362;2023-02-23T01:33:43;10.10;99.90
14517;DHT22;7344;50.864;4.362;2023-02-23T01:36:10;10.10;99.90
14517;DHT22;7344;50.864;4.362;2023-02-23T01:38:37;10.10;99.90
14517;DHT22;7344;50.864;4.362;2023-02-23T01:41:03;10.20;99.90
14517;DHT22;7344;50.864;4.362;2023-02-23T01:43:29;10.10;99.90
14517;DHT22;7344;50.864;4.362;2023-02-23T01:45:56;10.10;99.90
14517;DHT22;7344;50.864;4.362;2023-02-23T01:48:33;10.00;99.90
14517;DHT22;7344;50.864;4.362;2023-02-23T01:51:10;10.10;99.90
14517;DHT22;7344;50.864;4.362;2023-02-23T01:53:43;10.00;99.90
14517;DHT22;7344;50.864;4.362;2023-02-23T01:56:14;10.00;99.90
14517;DHT22;7344;50.864;4.362;2023-02-23T01:58:45;10.00;99.90
14517;DHT22;7344;50.864;4.362;2023-02-23T02:01:11;10.00;99.90
14517;DHT22;7344;50.864;4.362;2023-02-23T02:03:43;10.00;99.90
14517;DHT22;7344;50.864;4.362;2023-02-23T02:06:11;10.00;99.90
14517;DHT22;7344;50.864;4.362;2023-02-23T02:08:40;10.10;99.90
14517;DHT22;7344;50.864;4.362;2023-02-23T02:11:16;10.20;99.90
14517;DHT22;7344;50.864;4.362;2023-02-23T02:14:00;10.20;99.90
14517;DHT22;7344;50.864;4.362;2023-02-23T02:26:44;10.20;99.90
14517;DHT22;7344;50.864;4.362;2023-02-23T02:31:56;10.10;99.90
14517;DHT22;7344;50.864;4.362;2023-02-23T02:41:08;10.20;99.90
14517;DHT22;7344;50.864;4.362;2023-02-23T02:43:42;10.20;99.90
14517;DHT22;7344;50.864;4.362;2023-02-23T02:46:44;10.30;99.90
14517;DHT22;7344;50.864;4.362;2023-02-23T02:49:33;10.30;99.90
14517;DHT22;7344;50.864;4.362;2023-02-23T02:52:20;10.40;99.90
14517;DHT22;7344;50.864;4.362;2023-02-23T02:54:51;10.30;99.90
14517;DHT22;7344;50.864;4.362;2023-02-23T02:57:19;10.30;99.90
14517;DHT22;7344;50.864;4.362;2023-02-23T02:59:48;10.20;99.90
14517;DHT22;7344;50.864;4.362;2023-02-23T03:02:40;10.10;99.90
14517;DHT22;7344;50.864;4.362;2023-02-23T03:05:41;10.10;99.90
14517;DHT22;7344;50.864;4.362;2023-02-23T03:08:49;10.10;99.90
14517;DHT22;7344;50.864;4.362;2023-02-23T03:11:39;10.00;99.90
14517;DHT22;7344;50.864;4.362;2023-02-23T03:15:07;10.00;99.90
14517;DHT22;7344;50.864;4.362;2023-02-23T03:18:14;10.10;99.90
14517;DHT22;7344;50.864;4.362;2023-02-23T03:21:06;10.10;99.90
14517;DHT22;7344;50.864;4.362;2023-02-23T03:24:11;10.10;99.90
14517;DHT22;7344;50.864;4.362;2023-02-23T03:27:02;10.10;99.90
14517;DHT22;7344;50.864;4.362;2023-02-23T03:30:06;10.20;99.90
14517;DHT22;7344;50.864;4.362;2023-02-23T03:32:58;10.20;99.90
14517;DHT22;7344;50.864;4.362;2023-02-23T03:36:04;10.20;99.90
14517;DHT22;7344;50.864;4.362;2023-02-23T03:41:39;10.10;99.90
14517;DHT22;7344;50.864;4.362;2023-02-23T03:44:29;10.10;99.90
14517;DHT22;7344;50.864;4.362;2023-02-23T03:47:15;10.00;99.90
14517;DHT22;7344;50.864;4.362;2023-02-23T03:50:04;10.00;99.90
14517;DHT22;7344;50.864;4.362;2023-02-23T03:52:59;10.10;99.90
14517;DHT22;7344;50.864;4.362;2023-02-23T03:55:51;10.10;99.90
14517;DHT22;7344;50.864;4.362;2023-02-23T03:58:39;10.20;99.90
14517;DHT22;7344;50.864;4.362;2023-02-23T04:01:26;10.10;99.90
14517;DHT22;7344;50.864;4.362;2023-02-23T04:04:11;10.20;99.90
14517;DHT22;7344;50.864;4.362;2023-02-23T04:06:57;10.20;99.90
14517;DHT22;7344;50.864;4.362;2023-02-23T04:09:42;10.20;99.90
14517;DHT22;7344;50.864;4.362;2023-02-23T04:15:39;10.20;99.90
14517;DHT22;7344;50.864;4.362;2023-02-23T04:18:07;10.10;99.90
14517;DHT22;7344;50.864;4.362;2023-02-23T04:20:36;10.10;99.90
14517;DHT22;7344;50.864;4.362;2023-02-23T04:23:05;10.10;99.90
14517;DHT22;7344;50.864;4.362;2023-02-23T04:25:30;10.10;99.90
14517;DHT22;7344;50.864;4.362;2023-02-23T04:27:56;10.10;99.90
14517;DHT22;7344;50.864;4.362;2023-02-23T04:30:22;10.00;99.90
14517;DHT22;7344;50.864;4.362;2023-02-23T04:32:53;10.00;99.90
14517;DHT22;7344;50.864;4.362;2023-02-23T04:35:19;10.00;99.90
14517;DHT22;7344;50.864;4.362;2023-02-23T04:37:48;10.00;99.90
14517;DHT22;7344;50.864;4.362;2023-02-23T04:40:13;9.90;99.90
14517;DHT22;7344;50.864;4.362;2023-02-23T04:42:39;9.80;99.90
14517;DHT22;7344;50.864;4.362;2023-02-23T04:45:08;9.90;99.90
14517;DHT22;7344;50.864;4.362;2023-02-23T04:47:34;9.90;99.90
14517;DHT22;7344;50.864;4.362;2023-02-23T04:50:00;10.10;99.90
14517;DHT22;7344;50.864;4.362;2023-02-23T04:52:26;10.10;99.90
14517;DHT22;7344;50.864;4.362;2023-02-23T04:54:51;10.10;99.90
14517;DHT22;7344;50.864;4.362;2023-02-23T04:57:17;10.10;99.90
14517;DHT22;7344;50.864;4.362;2023-02-23T04:59:43;10.00;99.90
14517;DHT22;7344;50.864;4.362;2023-02-23T05:02:08;10.10;99.90
14517;DHT22;7344;50.864;4.362;2023-02-23T05:04:34;9.90;99.90
14517;DHT22;7344;50.864;4.362;2023-02-23T05:07:00;9.80;99.90
14517;DHT22;7344;50.864;4.362;2023-02-23T05:09:26;9.70;99.90
14517;DHT22;7344;50.864;4.362;2023-02-23T05:11:51;9.60;99.90
14517;DHT22;7344;50.864;4.362;2023-02-23T05:14:17;9.50;99.90
14517;DHT22;7344;50.864;4.362;2023-02-23T05:16:43;9.60;99.90
14517;DHT22;7344;50.864;4.362;2023-02-23T05:19:11;9.70;99.90
14517;DHT22;7344;50.864;4.362;2023-02-23T05:21:40;9.80;99.90
14517;DHT22;7344;50.864;4.362;2023-02-23T05:24:09;9.80;99.90
14517;DHT22;7344;50.864;4.362;2023-02-23T05:26:38;9.80;99.90
14517;DHT22;7344;50.864;4.362;2023-02-23T05:29:04;9.80;99.90
14517;DHT22;7344;50.864;4.362;2023-02-23T05:31:31;9.80;99.90
14517;DHT22;7344;50.864;4.362;2023-02-23T05:33:56;9.90;99.90
14517;DHT22;7344;50.864;4.362;2023-02-23T05:36:22;9.90;99.90
14517;DHT22;7344;50.864;4.362;2023-02-23T05:38:48;10.00;99.90
14517;DHT22;7344;50.864;4.362;2023-02-23T05:41:16;10.00;99.90
14517;DHT22;7344;50.864;4.362;2023-02-23T05:43:42;9.80;99.90
14517;DHT22;7344;50.864;4.362;2023-02-23T05:46:10;9.70;99.90
14517;DHT22;7344;50.864;4.362;2023-02-23T05:48:36;9.70;99.90
14517;DHT22;7344;50.864;4.362;2023-02-23T05:51:07;9.50;99.90
14517;DHT22;7344;50.864;4.362;2023-02-23T05:53:33;9.30;99.90
14517;DHT22;7344;50.864;4.362;2023-02-23T05:56:02;9.20;99.90
14517;DHT22;7344;50.864;4.362;2023-02-23T05:58:28;9.10;99.90
14517;DHT22;7344;50.864;4.362;2023-02-23T06:00:57;9.10;99.90
14517;DHT22;7344;50.864;4.362;2023-02-23T06:03:22;9.30;99.90
14517;DHT22;7344;50.864;4.362;2023-02-23T06:05:52;9.30;99.90
14517;DHT22;7344;50.864;4.362;2023-02-23T06:08:21;9.30;99.90
14517;DHT22;7344;50.864;4.362;2023-02-23T06:10:47;9.10;99.90
14517;DHT22;7344;50.864;4.362;2023-02-23T06:13:16;9.10;99.90
14517;DHT22;7344;50.864;4.362;2023-02-23T06:15:43;9.10;99.90
14517;DHT22;7344;50.864;4.362;2023-02-23T06:18:09;9.00;99.90
14517;DHT22;7344;50.864;4.362;2023-02-23T06:20:35;9.00;99.90
14517;DHT22;7344;50.864;4.362;2023-02-23T06:23:02;8.90;99.90
14517;DHT22;7344;50.864;4.362;2023-02-23T06:25:28;9.00;99.90
14517;DHT22;7344;50.864;4.362;2023-02-23T06:27:54;9.10;99.90
14517;DHT22;7344;50.864;4.362;2023-02-23T06:30:22;9.10;99.90
14517;DHT22;7344;50.864;4.362;2023-02-23T06:32:48;9.00;99.90
14517;DHT22;7344;50.864;4.362;2023-02-23T06:35:14;9.00;99.90
14517;DHT22;7344;50.864;4.362;2023-02-23T06:37:39;9.00;99.90
14517;DHT22;7344;50.864;4.362;2023-02-23T06:40:06;9.00;99.90
14517;DHT22;7344;50.864;4.362;2023-02-23T06:42:31;9.10;99.90
14517;DHT22;7344;50.864;4.362;2023-02-23T06:45:01;9.30;99.90
14517;DHT22;7344;50.864;4.362;2023-02-23T06:47:27;9.50;99.90
14517;DHT22;7344;50.864;4.362;2023-02-23T06:49:53;9.50;99.90
14517;DHT22;7344;50.864;4.362;2023-02-23T06:52:19;9.60;99.90
14517;DHT22;7344;50.864;4.362;2023-02-23T06:54:44;9.70;99.90
14517;DHT22;7344;50.864;4.362;2023-02-23T06:57:10;9.80;99.90
14517;DHT22;7344;50.864;4.362;2023-02-23T06:59:36;9.90;99.90
14517;DHT22;7344;50.864;4.362;2023-02-23T07:02:02;10.00;99.90
14517;DHT22;7344;50.864;4.362;2023-02-23T07:04:33;10.10;99.90
14517;DHT22;7344;50.864;4.362;2023-02-23T07:07:01;10.10;99.90
14517;DHT22;7344;50.864;4.362;2023-02-23T07:09:27;10.20;99.90
14517;DHT22;7344;50.864;4.362;2023-02-23T07:11:53;10.20;99.90
14517;DHT22;7344;50.864;4.362;2023-02-23T07:14:19;10.20;99.90
14517;DHT22;7344;50.864;4.362;2023-02-23T07:16:44;10.30;99.90
14517;DHT22;7344;50.864;4.362;2023-02-23T07:19:10;10.40;99.90
14517;DHT22;7344;50.864;4.362;2023-02-23T07:21:35;10.30;99.90
14517;DHT22;7344;50.864;4.362;2023-02-23T07:24:01;10.20;99.90
14517;DHT22;7344;50.864;4.362;2023-02-23T07:26:29;10.30;99.90
14517;DHT22;7344;50.864;4.362;2023-02-23T07:28:55;10.40;99.90
14517;DHT22;7344;50.864;4.362;2023-02-23T07:31:21;10.50;99.90
14517;DHT22;7344;50.864;4.362;2023-02-23T07:33:46;10.50;99.90
14517;DHT22;7344;50.864;4.362;2023-02-23T07:36:12;10.50;99.90
14517;DHT22;7344;50.864;4.362;2023-02-23T07:38:38;10.60;99.90
14517;DHT22;7344;50.864;4.362;2023-02-23T07:41:04;10.60;99.90
14517;DHT22;7344;50.864;4.362;2023-02-23T07:43:32;10.60;99.90
14517;DHT22;7344;50.864;4.362;2023-02-23T07:45:59;10.50;99.90
14517;DHT22;7344;50.864;4.362;2023-02-23T07:48:25;10.40;99.90
14517;DHT22;7344;50.864;4.362;2023-02-23T07:50:51;10.50;99.90
14517;DHT22;7344;50.864;4.362;2023-02-23T07:53:16;10.50;99.90
14517;DHT22;7344;50.864;4.362;2023-02-23T07:55:42;10.40;99.90
14517;DHT22;7344;50.864;4.362;2023-02-23T07:58:08;10.60;99.90
14517;DHT22;7344;50.864;4.362;2023-02-23T08:00:35;10.60;99.90
14517;DHT22;7344;50.864;4.362;2023-02-23T08:03:05;10.70;99.90
14517;DHT22;7344;50.864;4.362;2023-02-23T08:05:37;10.70;99.90
14517;DHT22;7344;50.864;4.362;2023-02-23T08:08:04;10.70;99.90
14517;DHT22;7344;50.864;4.362;2023-02-23T08:10:30;10.70;99.90
14517;DHT22;7344;50.864;4.362;2023-02-23T08:12:57;10.70;99.90
14517;DHT22;7344;50.864;4.362;2023-02-23T08:15:23;10.70;99.90
14517;DHT22;7344;50.864;4.362;2023-02-23T08:17:49;10.70;99.90
14517;DHT22;7344;50.864;4.362;2023-02-23T08:20:15;10.60;99.90
14517;DHT22;7344;50.864;4.362;2023-02-23T08:22:41;10.70;99.90
14517;DHT22;7344;50.864;4.362;2023-02-23T08:25:12;10.80;99.90
14517;DHT22;7344;50.864;4.362;2023-02-23T08:27:38;10.80;99.90
14517;DHT22;7344;50.864;4.362;2023-02-23T08:30:05;10.90;99.90
14517;DHT22;7344;50.864;4.362;2023-02-23T08:32:34;10.90;99.90
14517;DHT22;7344;50.864;4.362;2023-02-23T08:35:00;10.90;99.90
14517;DHT22;7344;50.864;4.362;2023-02-23T08:37:30;10.90;99.90
14517;DHT22;7344;50.864;4.362;2023-02-23T08:39:56;10.90;99.90
14517;DHT22;7344;50.864;4.362;2023-02-23T08:42:21;10.90;99.90
14517;DHT22;7344;50.864;4.362;2023-02-23T08:44:47;10.90;99.90
14517;DHT22;7344;50.864;4.362;2023-02-23T08:47:16;10.90;99.90
14517;DHT22;7344;50.864;4.362;2023-02-23T08:49:51;11.00;99.90
14517;DHT22;7344;50.864;4.362;2023-02-23T08:52:19;11.00;99.00
14517;DHT22;7344;50.864;4.362;2023-02-23T08:54:45;11.00;99.90
14517;DHT22;7344;50.864;4.362;2023-02-23T08:57:11;10.90;99.90
14517;DHT22;7344;50.864;4.362;2023-02-23T08:59:37;10.80;99.90
14517;DHT22;7344;50.864;4.362;2023-02-23T09:02:08;10.90;99.90
14517;DHT22;7344;50.864;4.362;2023-02-23T09:04:35;10.90;99.90
14517;DHT22;7344;50.864;4.362;2023-02-23T09:07:03;10.90;99.90
14517;DHT22;7344;50.864;4.362;2023-02-23T09:09:28;11.00;99.60
14517;DHT22;7344;50.864;4.362;2023-02-23T09:11:54;11.00;99.90
14517;DHT22;7344;50.864;4.362;2023-02-23T09:14:20;11.30;98.50
14517;DHT22;7344;50.864;4.362;2023-02-23T09:16:45;11.40;92.80
14517;DHT22;7344;50.864;4.362;2023-02-23T09:19:15;11.50;90.00
14517;DHT22;7344;50.864;4.362;2023-02-23T09:21:42;11.70;87.00
14517;DHT22;7344;50.864;4.362;2023-02-23T09:24:08;11.80;76.90
14517;DHT22;7344;50.864;4.362;2023-02-23T09:26:34;11.80;76.60
14517;DHT22;7344;50.864;4.362;2023-02-23T09:29:05;11.60;80.00
14517;DHT22;7344;50.864;4.362;2023-02-23T09:31:31;11.40;89.70
14517;DHT22;7344;50.864;4.362;2023-02-23T09:34:00;11.30;96.70
14517;DHT22;7344;50.864;4.362;2023-02-23T09:36:29;11.40;94.20
14517;DHT22;7344;50.864;4.362;2023-02-23T09:38:56;11.40;93.10
14517;DHT22;7344;50.864;4.362;2023-02-23T09:49:48;11.50;84.20
14517;DHT22;7344;50.864;4.362;2023-02-23T09:52:23;11.40;86.30
14517;DHT22;7344;50.864;4.362;2023-02-23T09:54:55;11.30;93.90
14517;DHT22;7344;50.864;4.362;2023-02-23T09:57:28;11.10;95.70
14517;DHT22;7344;50.864;4.362;2023-02-23T09:59:57;11.00;98.20
14517;DHT22;7344;50.864;4.362;2023-02-23T10:02:37;10.60;99.90
14517;DHT22;7344;50.864;4.362;2023-02-23T10:05:11;10.70;99.90
14517;DHT22;7344;50.864;4.362;2023-02-23T10:11:06;11.10;98.70
14517;DHT22;7344;50.864;4.362;2023-02-23T10:13:47;11.40;96.20
14517;DHT22;7344;50.864;4.362;2023-02-23T10:16:21;11.60;87.30
14517;DHT22;7344;50.864;4.362;2023-02-23T10:19:10;11.40;80.40
14517;DHT22;7344;50.864;4.362;2023-02-23T10:21:39;11.60;86.50
14517;DHT22;7344;50.864;4.362;2023-02-23T10:24:19;11.90;80.50
14517;DHT22;7344;50.864;4.362;2023-02-23T10:26:51;12.00;69.60
14517;DHT22;7344;50.864;4.362;2023-02-23T10:29:34;12.10;60.80
14517;DHT22;7344;50.864;4.362;2023-02-23T10:32:25;12.20;57.00
14517;DHT22;7344;50.864;4.362;2023-02-23T10:34:55;12.30;46.90
14517;DHT22;7344;50.864;4.362;2023-02-23T10:37:22;12.30;47.40
14517;DHT22;7344;50.864;4.362;2023-02-23T10:39:48;12.60;36.30
14517;DHT22;7344;50.864;4.362;2023-02-23T10:42:24;12.70;22.90
14517;DHT22;7344;50.864;4.362;2023-02-23T10:44:53;13.10;9.10
14517;DHT22;7344;50.864;4.362;2023-02-23T10:47:33;13.60;4.10
14517;DHT22;7344;50.864;4.362;2023-02-23T10:50:02;13.60;1.00
14517;DHT22;7344;50.864;4.362;2023-02-23T10:52:39;13.70;1.00
14517;DHT22;7344;50.864;4.362;2023-02-23T10:55:26;13.20;1.00
14517;DHT22;7344;50.864;4.362;2023-02-23T10:58:11;12.60;6.00
14517;DHT22;7344;50.864;4.362;2023-02-23T11:00:54;12.50;11.20
14517;DHT22;7344;50.864;4.362;2023-02-23T11:03:28;12.20;19.00
14517;DHT22;7344;50.864;4.362;2023-02-23T11:05:54;12.40;28.20
14517;DHT22;7344;50.864;4.362;2023-02-23T11:08:24;12.40;17.70
14517;DHT22;7344;50.864;4.362;2023-02-23T11:13:46;12.60;14.50
14517;DHT22;7344;50.864;4.362;2023-02-23T11:16:17;12.50;14.70
14517;DHT22;7344;50.864;4.362;2023-02-23T11:23:50;12.30;32.10
14517;DHT22;7344;50.864;4.362;2023-02-23T11:26:31;12.20;24.90
14517;DHT22;7344;50.864;4.362;2023-02-23T11:29:03;12.10;36.90
14517;DHT22;7344;50.864;4.362;2023-02-23T11:31:36;12.00;40.80
14517;DHT22;7344;50.864;4.362;2023-02-23T11:34:04;12.00;47.10
14517;DHT22;7344;50.864;4.362;2023-02-23T11:36:33;12.10;39.30
14517;DHT22;7344;50.864;4.362;2023-02-23T11:39:29;12.40;36.50
14517;DHT22;7344;50.864;4.362;2023-02-23T11:42:20;12.30;31.00
14517;DHT22;7344;50.864;4.362;2023-02-23T11:47:32;12.40;37.40
14517;DHT22;7344;50.864;4.362;2023-02-23T11:50:00;12.60;27.60
14517;DHT22;7344;50.864;4.362;2023-02-23T11:52:27;12.60;23.50
14517;DHT22;7344;50.864;4.362;2023-02-23T11:54:56;12.50;26.60
14517;DHT22;7344;50.864;4.362;2023-02-23T11:57:25;12.30;33.80
14517;DHT22;7344;50.864;4.362;2023-02-23T11:59:52;12.40;33.00
14517;DHT22;7344;50.864;4.362;2023-02-23T12:02:29;12.50;30.60
14517;DHT22;7344;50.864;4.362;2023-02-23T12:07:34;12.70;27.10
14517;DHT22;7344;50.864;4.362;2023-02-23T12:10:21;12.80;18.80
14517;DHT22;7344;50.864;4.362;2023-02-23T12:16:02;12.70;19.10
14517;DHT22;7344;50.864;4.362;2023-02-23T12:18:49;12.30;21.60
14517;DHT22;7344;50.864;4.362;2023-02-23T12:21:36;12.20;29.60
14517;DHT22;7344;50.864;4.362;2023-02-23T12:26:37;12.30;29.90
14517;DHT22;7344;50.864;4.362;2023-02-23T12:29:20;12.30;33.80
14517;DHT22;7344;50.864;4.362;2023-02-23T12:32:09;12.40;34.00
14517;DHT22;7344;50.864;4.362;2023-02-23T12:39:46;12.80;17.00
14517;DHT22;7344;50.864;4.362;2023-02-23T12:42:23;12.90;14.10
14517;DHT22;7344;50.864;4.362;2023-02-23T12:44:57;12.80;12.70
14517;DHT22;7344;50.864;4.362;2023-02-23T12:50:01;13.10;7.20
14517;DHT22;7344;50.864;4.362;2023-02-23T12:52:35;13.20;1.00
14517;DHT22;7344;50.864;4.362;2023-02-23T12:55:08;13.20;1.00
14517;DHT22;7344;50.864;4.362;2023-02-23T13:17:03;12.50;4.90
14517;DHT22;7344;50.864;4.362;2023-02-23T13:19:38;12.30;7.00
14517;DHT22;7344;50.864;4.362;2023-02-23T13:22:31;12.20;16.50
14517;DHT22;7344;50.864;4.362;2023-02-23T13:25:03;12.10;20.80
14517;DHT22;7344;50.864;4.362;2023-02-23T13:27:43;12.20;20.90
14517;DHT22;7344;50.864;4.362;2023-02-23T13:30:11;12.20;19.00
14517;DHT22;7344;50.864;4.362;2023-02-23T13:32:37;12.10;28.50
14517;DHT22;7344;50.864;4.362;2023-02-23T13:35:07;11.90;36.20
14517;DHT22;7344;50.864;4.362;2023-02-23T13:49:13;12.10;39.00
14517;DHT22;7344;50.864;4.362;2023-02-23T13:51:58;12.10;34.30
14517;DHT22;7344;50.864;4.362;2023-02-23T13:54:31;11.80;44.50
14517;DHT22;7344;50.864;4.362;2023-02-23T13:57:03;11.80;50.60
14517;DHT22;7344;50.864;4.362;2023-02-23T13:59:40;11.70;50.30
14517;DHT22;7344;50.864;4.362;2023-02-23T14:05:22;12.00;45.80
14517;DHT22;7344;50.864;4.362;2023-02-23T14:08:02;12.10;33.60
14517;DHT22;7344;50.864;4.362;2023-02-23T14:10:37;12.20;29.20
14517;DHT22;7344;50.864;4.362;2023-02-23T14:34:22;11.70;32.30
14517;DHT22;7344;50.864;4.362;2023-02-23T14:36:48;11.90;31.00
14517;DHT22;7344;50.864;4.362;2023-02-23T14:39:25;12.10;22.90
14517;DHT22;7344;50.864;4.362;2023-02-23T14:41:55;12.10;20.10
14517;DHT22;7344;50.864;4.362;2023-02-23T14:49:21;12.60;2.20
14517;DHT22;7344;50.864;4.362;2023-02-23T14:51:51;12.30;8.10
14517;DHT22;7344;50.864;4.362;2023-02-23T14:56:55;12.50;9.30
14517;DHT22;7344;50.864;4.362;2023-02-23T14:59:34;12.70;2.70
14517;DHT22;7344;50.864;4.362;2023-02-23T15:02:03;12.70;1.00
14517;DHT22;7344;50.864;4.362;2023-02-23T15:04:31;12.80;1.00
14517;DHT22;7344;50.864;4.362;2023-02-23T15:06:58;12.90;1.00
14517;DHT22;7344;50.864;4.362;2023-02-23T15:09:38;12.90;1.00
14517;DHT22;7344;50.864;4.362;2023-02-23T15:12:23;12.90;1.00
14517;DHT22;7344;50.864;4.362;2023-02-23T15:14:56;13.00;1.00
14517;DHT22;7344;50.864;4.362;2023-02-23T15:17:25;12.80;1.00
14517;DHT22;7344;50.864;4.362;2023-02-23T15:20:01;12.70;1.00
14517;DHT22;7344;50.864;4.362;2023-02-23T15:22:33;12.70;1.00
14517;DHT22;7344;50.864;4.362;2023-02-23T15:25:02;12.80;1.00
14517;DHT22;7344;50.864;4.362;2023-02-23T15:27:39;12.80;1.00
14517;DHT22;7344;50.864;4.362;2023-02-23T15:32:47;12.60;1.00
14517;DHT22;7344;50.864;4.362;2023-02-23T15:35:13;12.60;1.00
14517;DHT22;7344;50.864;4.362;2023-02-23T15:37:43;12.50;1.00
14517;DHT22;7344;50.864;4.362;2023-02-23T15:40:18;12.60;1.00
14517;DHT22;7344;50.864;4.362;2023-02-23T15:42:48;12.70;1.00
14517;DHT22;7344;50.864;4.362;2023-02-23T15:45:41;12.70;1.00
14517;DHT22;7344;50.864;4.362;2023-02-23T15:48:17;12.70;1.00
14517;DHT22;7344;50.864;4.362;2023-02-23T15:50:55;12.70;1.00
14517;DHT22;7344;50.864;4.362;2023-02-23T15:53:28;12.60;1.00
14517;DHT22;7344;50.864;4.362;2023-02-23T15:56:00;12.50;1.00
14517;DHT22;7344;50.864;4.362;2023-02-23T15:58:31;12.30;1.00
14517;DHT22;7344;50.864;4.362;2023-02-23T16:00:59;12.20;1.00
14517;DHT22;7344;50.864;4.362;2023-02-23T16:03:33;12.20;1.00
14517;DHT22;7344;50.864;4.362;2023-02-23T16:06:03;12.20;1.00
14517;DHT22;7344;50.864;4.362;2023-02-23T16:08:29;12.20;1.00
14517;DHT22;7344;50.864;4.362;2023-02-23T16:11:11;12.10;1.00
14517;DHT22;7344;50.864;4.362;2023-02-23T16:13:44;12.00;1.00
14517;DHT22;7344;50.864;4.362;2023-02-23T16:16:12;11.90;1.00
14517;DHT22;7344;50.864;4.362;2023-02-23T16:18:50;11.80;1.00
14517;DHT22;7344;50.864;4.362;2023-02-23T16:21:20;11.70;1.00
14517;DHT22;7344;50.864;4.362;2023-02-23T16:23:50;11.50;1.00
14517;DHT22;7344;50.864;4.362;2023-02-23T16:26:43;11.40;1.00
14517;DHT22;7344;50.864;4.362;2023-02-23T16:29:14;11.40;1.00
14517;DHT22;7344;50.864;4.362;2023-02-23T16:31:45;11.30;1.00
14517;DHT22;7344;50.864;4.362;2023-02-23T16:37:00;11.40;1.00
14517;DHT22;7344;50.864;4.362;2023-02-23T16:39:29;11.50;1.00
14517;DHT22;7344;50.864;4.362;2023-02-23T16:41:57;11.40;1.00
14517;DHT22;7344;50.864;4.362;2023-02-23T16:44:26;11.40;2.50
14517;DHT22;7344;50.864;4.362;2023-02-23T16:49:27;11.50;1.00
14517;DHT22;7344;50.864;4.362;2023-02-23T16:51:57;11.40;1.00
14517;DHT22;7344;50.864;4.362;2023-02-23T16:54:22;11.40;4.20
14517;DHT22;7344;50.864;4.362;2023-02-23T16:56:49;11.40;1.40
14517;DHT22;7344;50.864;4.362;2023-02-23T16:59:16;11.30;1.50
14517;DHT22;7344;50.864;4.362;2023-02-23T17:01:43;11.10;8.10
14517;DHT22;7344;50.864;4.362;2023-02-23T17:04:15;11.00;16.30
14517;DHT22;7344;50.864;4.362;2023-02-23T17:06:42;10.90;22.00
14517;DHT22;7344;50.864;4.362;2023-02-23T17:09:11;10.90;26.00
14517;DHT22;7344;50.864;4.362;2023-02-23T17:11:38;10.90;28.90
14517;DHT22;7344;50.864;4.362;2023-02-23T17:14:11;10.90;26.00
14517;DHT22;7344;50.864;4.362;2023-02-23T17:16:46;10.90;27.60
14517;DHT22;7344;50.864;4.362;2023-02-23T17:19:11;10.80;27.10
14517;DHT22;7344;50.864;4.362;2023-02-23T17:21:40;10.90;30.60
14517;DHT22;7344;50.864;4.362;2023-02-23T17:24:05;11.00;25.90
14517;DHT22;7344;50.864;4.362;2023-02-23T17:26:31;11.00;26.80
14517;DHT22;7344;50.864;4.362;2023-02-23T17:28:57;11.00;24.90
14517;DHT22;7344;50.864;4.362;2023-02-23T17:31:22;11.00;28.00
14517;DHT22;7344;50.864;4.362;2023-02-23T17:33:48;10.90;31.90
14517;DHT22;7344;50.864;4.362;2023-02-23T17:36:15;10.90;35.30
14517;DHT22;7344;50.864;4.362;2023-02-23T17:38:42;10.80;35.80
14517;DHT22;7344;50.864;4.362;2023-02-23T17:41:19;10.80;43.40
14517;DHT22;7344;50.864;4.362;2023-02-23T17:43:45;10.80;44.40
14517;DHT22;7344;50.864;4.362;2023-02-23T17:46:11;10.80;44.90
14517;DHT22;7344;50.864;4.362;2023-02-23T17:48:37;10.90;43.90
14517;DHT22;7344;50.864;4.362;2023-02-23T17:51:07;10.90;39.60
14517;DHT22;7344;50.864;4.362;2023-02-23T17:53:33;10.90;40.20
14517;DHT22;7344;50.864;4.362;2023-02-23T17:55:59;10.90;41.60
14517;DHT22;7344;50.864;4.362;2023-02-23T17:58:26;10.80;41.50
14517;DHT22;7344;50.864;4.362;2023-02-23T18:00:59;10.90;42.70
14517;DHT22;7344;50.864;4.362;2023-02-23T18:03:27;10.80;41.50
14517;DHT22;7344;50.864;4.362;2023-02-23T18:06:07;10.80;40.20
14517;DHT22;7344;50.864;4.362;2023-02-23T18:08:33;10.80;41.70
14517;DHT22;7344;50.864;4.362;2023-02-23T18:10:58;10.70;44.60
14517;DHT22;7344;50.864;4.362;2023-02-23T18:13:25;10.70;43.50
14517;DHT22;7344;50.864;4.362;2023-02-23T18:15:58;10.70;45.30
14517;DHT22;7344;50.864;4.362;2023-02-23T18:18:24;10.70;45.00
14517;DHT22;7344;50.864;4.362;2023-02-23T18:20:52;10.70;41.30
14517;DHT22;7344;50.864;4.362;2023-02-23T18:23:19;10.80;37.90
14517;DHT22;7344;50.864;4.362;2023-02-23T18:25:45;10.70;30.90
14517;DHT22;7344;50.864;4.362;2023-02-23T18:28:11;10.70;34.00
14517;DHT22;7344;50.864;4.362;2023-02-23T18:30:38;10.80;30.90
14517;DHT22;7344;50.864;4.362;2023-02-23T18:33:04;10.80;24.90